Time;durP1;ratioP1;P1;durP2;ratioP2;P2;SDS_P1;SDS_P2;PMS_P1;PMS_P2;Temp;Humidity;BMP_temperature;BMP_pressure;BME280_temperature;BME280_humidity;BME280_pressure;Samples;Min_cycle;Max_cycle;Signal;HPM_P1;HPM_P2
2021/05/02 00:00:36;;;;;;;1999.90;999.90;;;13.20;99.80;;;;;;5113231;28;20216;-42
2021/05/02 00:03:05;;;;;;;1999.90;999.90;;;13.20;99.40;;;;;;5113556;28;20262;-42
2021/05/02 00:05:35;;;;;;;1999.90;999.90;;;13.30;99.10;;;;;;5113119;28;20179;-43
2021/05/02 00:08:03;;;;;;;1999.90;999.90;;;13.30;98.80;;;;;;5113243;28;20258;-42
2021/05/02 00:10:31;;;;;;;1999.90;999.90;;;13.30;99.00;;;;;;5113181;28;20163;-42
2021/05/02 00:13:00;;;;;;;1999.90;999.90;;;13.20;99.00;;;;;;5113104;28;20191;-43
2021/05/02 00:15:27;;;;;;;1999.90;999.90;;;13.20;99.20;;;;;;5113185;28;20206;-43
2021/05/02 00:17:56;;;;;;;1999.90;999.90;;;13.20;99.20;;;;;;5113008;28;20203;-42
2021/05/02 00:20:24;;;;;;;1999.90;999.90;;;13.10;98.90;;;;;;5113142;28;20163;-42
2021/05/02 00:22:54;;;;;;;1999.90;999.90;;;13.10;99.30;;;;;;5113034;28;20175;-43
2021/05/02 00:25:24;;;;;;;1999.90;999.90;;;13.10;99.50;;;;;;5113012;28;20177;-42
2021/05/02 00:27:52;;;;;;;1999.90;999.90;;;13.10;99.30;;;;;;5112954;28;20262;-42
2021/05/02 00:30:22;;;;;;;1999.90;999.90;;;13.10;99.20;;;;;;5112900;28;20166;-54
2021/05/02 00:32:51;;;;;;;1999.90;999.90;;;13.10;99.60;;;;;;5112755;28;20264;-42
2021/05/02 00:35:23;;;;;;;1999.90;999.90;;;13.10;99.90;;;;;;5112717;28;20589;-42
2021/05/02 00:37:51;;;;;;;1999.90;999.90;;;13.00;99.90;;;;;;5112785;28;20163;-42
2021/05/02 00:40:39;;;;;;;1999.90;999.90;;;12.90;99.90;;;;;;5113073;28;20567;-43
2021/05/02 00:43:19;;;;;;;1999.90;999.90;;;12.90;99.90;;;;;;5113004;28;20512;-43
2021/05/02 00:46:18;;;;;;;1999.90;999.90;;;12.80;99.90;;;;;;5112853;28;20617;-42
2021/05/02 00:48:53;;;;;;;1999.90;999.90;;;12.80;99.90;;;;;;5099507;28;20187;-42
2021/05/02 00:51:22;;;;;;;1999.90;999.90;;;12.70;99.90;;;;;;5113264;28;20201;-42
2021/05/02 00:53:58;;;;;;;1999.90;999.90;;;12.70;99.90;;;;;;5116216;28;20247;-43
2021/05/02 00:56:28;;;;;;;1999.90;999.90;;;12.70;99.90;;;;;;5116422;28;20492;-42
2021/05/02 00:59:06;;;;;;;1999.90;999.90;;;12.70;99.90;;;;;;5116746;28;20195;-51
2021/05/02 01:01:50;;;;;;;1999.90;999.90;;;12.60;99.90;;;;;;5116464;28;20291;-45
2021/05/02 01:04:25;;;;;;;1999.90;999.90;;;12.50;99.90;;;;;;5116452;28;20674;-42
2021/05/02 01:06:55;;;;;;;1999.90;999.90;;;12.40;99.90;;;;;;5116397;28;20271;-42
2021/05/02 01:09:28;;;;;;;1999.90;999.90;;;12.30;99.90;;;;;;5116437;28;20249;-42
2021/05/02 01:11:57;;;;;;;1999.90;999.90;;;12.20;99.90;;;;;;5116308;28;20174;-42
2021/05/02 01:14:25;;;;;;;1999.90;999.90;;;12.20;99.90;;;;;;5116166;28;20199;-43
2021/05/02 01:16:56;;;;;;;1999.90;999.90;;;12.20;99.90;;;;;;5116257;28;20167;-42
2021/05/02 01:19:25;;;;;;;1999.90;999.90;;;12.10;99.90;;;;;;5116132;28;20249;-53
2021/05/02 01:21:53;;;;;;;1999.90;999.90;;;12.00;99.90;;;;;;5115981;28;20208;-42
2021/05/02 01:24:20;;;;;;;1999.90;999.90;;;12.10;99.90;;;;;;5097697;28;20171;-44
2021/05/02 01:26:47;;;;;;;1999.90;999.90;;;12.10;99.90;;;;;;5116032;28;20247;-42
2021/05/02 01:29:15;;;;;;;1999.90;999.90;;;12.10;99.90;;;;;;5097888;28;20571;-42
2021/05/02 01:31:43;;;;;;;1999.90;999.90;;;12.10;99.90;;;;;;5116049;28;20167;-45
2021/05/02 01:34:11;;;;;;;1999.90;999.90;;;12.10;99.90;;;;;;5115969;28;20203;-42
2021/05/02 01:36:38;;;;;;;1999.90;999.90;;;12.10;99.90;;;;;;5115950;28;20170;-52
2021/05/02 01:39:08;;;;;;;1999.90;999.90;;;12.10;99.90;;;;;;5115707;28;20178;-43
2021/05/02 01:41:35;;;;;;;1999.90;999.90;;;12.10;99.90;;;;;;5115713;28;20163;-42
2021/05/02 01:44:02;;;;;;;1999.90;999.90;;;12.10;99.90;;;;;;5115699;28;20606;-42
2021/05/02 01:46:41;;;;;;;1999.90;999.90;;;12.10;99.90;;;;;;5115535;28;20629;-42
2021/05/02 01:49:10;;;;;;;1999.90;999.90;;;12.10;99.90;;;;;;5115779;28;20193;-42
2021/05/02 01:51:39;;;;;;;1999.90;999.90;;;12.10;99.90;;;;;;5115334;28;20202;-43
2021/05/02 01:54:06;;;;;;;1999.90;999.90;;;12.10;99.90;;;;;;5115478;28;20290;-42
2021/05/02 01:56:34;;;;;;;1999.90;999.90;;;12.10;99.90;;;;;;5115484;28;20164;-42
2021/05/02 01:59:03;;;;;;;1999.90;999.90;;;12.10;99.90;;;;;;5115437;28;20164;-43
2021/05/02 02:01:31;;;;;;;1999.90;999.90;;;12.00;99.90;;;;;;5115373;28;20167;-42
2021/05/02 02:03:59;;;;;;;1999.90;999.90;;;12.00;99.90;;;;;;5114690;28;20181;-42
2021/05/02 02:06:27;;;;;;;1999.90;999.90;;;12.00;99.90;;;;;;5115268;28;20178;-42
2021/05/02 02:08:54;;;;;;;1999.90;999.90;;;11.90;99.90;;;;;;5115167;28;20199;-43
2021/05/02 02:11:22;;;;;;;1999.90;999.90;;;11.90;99.90;;;;;;5115183;28;20191;-42
2021/05/02 02:13:49;;;;;;;1999.90;999.90;;;11.80;99.90;;;;;;5115048;28;20562;-42
2021/05/02 02:16:16;;;;;;;1999.90;999.90;;;11.80;99.90;;;;;;5114975;28;20179;-43
2021/05/02 02:18:43;;;;;;;1999.90;999.90;;;11.80;99.90;;;;;;5115134;28;20175;-42
2021/05/02 02:21:13;;;;;;;1999.90;999.90;;;11.70;99.90;;;;;;5115157;28;20199;-42
2021/05/02 02:23:42;;;;;;;1999.90;999.90;;;11.60;99.90;;;;;;5114876;28;20633;-42
2021/05/02 02:26:27;;;;;;;1999.90;999.90;;;11.50;99.90;;;;;;5096440;28;20198;-42
2021/05/02 02:28:55;;;;;;;1999.90;999.90;;;11.50;99.90;;;;;;5096569;28;20175;-42
2021/05/02 02:31:23;;;;;;;1999.90;999.90;;;11.60;99.90;;;;;;5114861;28;20168;-42
2021/05/02 02:33:51;;;;;;;1999.90;999.90;;;11.60;99.90;;;;;;5096390;28;20565;-42
2021/05/02 02:36:18;;;;;;;1999.90;999.90;;;11.60;99.90;;;;;;5114658;28;20178;-42
2021/05/02 02:38:46;;;;;;;1999.90;999.90;;;11.50;99.90;;;;;;5114770;28;20261;-42
2021/05/02 02:41:17;;;;;;;1999.90;999.90;;;11.60;99.90;;;;;;5114706;28;20205;-42
2021/05/02 02:44:11;;;;;;;1999.90;999.90;;;11.60;99.90;;;;;;5114607;28;20159;-48
2021/05/02 02:46:46;;;;;;;1999.90;999.90;;;11.80;99.90;;;;;;5110813;28;20179;-42
2021/05/02 02:49:16;;;;;;;1999.90;999.90;;;11.70;99.90;;;;;;5114612;28;20155;-44
2021/05/02 02:51:47;;;;;;;1999.90;999.90;;;11.60;99.90;;;;;;5114278;28;20166;-42
2021/05/02 02:54:17;;;;;;;1999.90;999.90;;;11.60;99.90;;;;;;5114479;28;20554;-42
2021/05/02 02:56:47;;;;;;;1999.90;999.90;;;11.60;99.90;;;;;;5114399;28;20669;-46
2021/05/02 02:59:22;;;;;;;1999.90;999.90;;;11.60;99.90;;;;;;5114707;28;20163;-43
2021/05/02 03:01:49;;;;;;;1999.90;999.90;;;11.60;99.90;;;;;;5114407;28;20238;-43
2021/05/02 03:04:18;;;;;;;1999.90;999.90;;;11.60;99.90;;;;;;5114422;28;20167;-42
2021/05/02 03:06:46;;;;;;;1999.90;999.90;;;11.60;99.90;;;;;;5114342;28;20296;-42
2021/05/02 03:09:17;;;;;;;1999.90;999.90;;;11.50;99.90;;;;;;5114180;28;20265;-42
2021/05/02 03:11:44;;;;;;;1999.90;999.90;;;11.60;99.90;;;;;;5114250;28;20212;-43
2021/05/02 03:14:14;;;;;;;1999.90;999.90;;;11.50;99.90;;;;;;5113255;28;20199;-42
2021/05/02 03:16:43;;;;;;;1999.90;999.90;;;11.60;99.90;;;;;;5114064;28;20217;-42
2021/05/02 03:19:27;;;;;;;1999.90;999.90;;;11.50;99.90;;;;;;5114004;28;20244;-42
2021/05/02 03:22:00;;;;;;;1999.90;999.90;;;11.60;99.90;;;;;;5113874;28;20198;-42
2021/05/02 03:24:45;;;;;;;1999.90;999.90;;;11.50;99.90;;;;;;5113896;28;20172;-42
2021/05/02 03:27:28;;;;;;;1999.90;999.90;;;11.60;99.90;;;;;;5113826;28;20155;-42
2021/05/02 03:29:59;;;;;;;1999.90;999.90;;;11.60;99.90;;;;;;5113802;28;20163;-42
2021/05/02 03:32:32;;;;;;;1999.90;999.90;;;11.70;99.90;;;;;;5113722;28;20527;-42
2021/05/02 03:35:02;;;;;;;1999.90;999.90;;;11.80;99.90;;;;;;5113812;28;20170;-42
2021/05/02 03:37:33;;;;;;;1999.90;999.90;;;11.80;99.90;;;;;;5113722;28;20148;-44
2021/05/02 03:40:01;;;;;;;1999.90;999.90;;;11.80;99.90;;;;;;5113731;28;20177;-42
2021/05/02 03:42:28;;;;;;;1999.90;999.90;;;11.70;99.90;;;;;;5113597;28;20261;-42
2021/05/02 03:44:55;;;;;;;1999.90;999.90;;;11.70;99.90;;;;;;5113764;28;20179;-42
2021/05/02 03:47:22;;;;;;;1999.90;999.90;;;11.70;99.90;;;;;;5113748;28;20684;-42
2021/05/02 03:49:49;;;;;;;1999.90;999.90;;;11.60;99.90;;;;;;5113715;28;20528;-42
2021/05/02 03:52:16;;;;;;;1999.90;999.90;;;11.60;99.90;;;;;;5113291;28;20301;-42
2021/05/02 03:54:45;;;;;;;1999.90;999.90;;;11.50;99.90;;;;;;5113463;28;20696;-42
2021/05/02 03:57:12;;;;;;;1999.90;999.90;;;11.60;99.90;;;;;;5113446;28;20191;-42
2021/05/02 03:59:39;;;;;;;1999.90;999.90;;;11.50;99.90;;;;;;5113682;28;20525;-42
2021/05/02 04:02:07;;;;;;;1999.90;999.90;;;11.40;99.90;;;;;;5113402;28;20185;-42
2021/05/02 04:04:35;;;;;;;1999.90;999.90;;;11.40;99.90;;;;;;5113265;28;20531;-45
2021/05/02 04:07:07;;;;;;;1999.90;999.90;;;11.40;99.90;;;;;;5113249;28;20233;-42
2021/05/02 04:09:34;;;;;;;1999.90;999.90;;;11.40;99.90;;;;;;5113533;28;20176;-42
2021/05/02 04:12:01;;;;;;;1999.90;999.90;;;11.30;99.90;;;;;;5113247;28;20174;-45
2021/05/02 04:14:28;;;;;;;1999.90;999.90;;;11.30;99.90;;;;;;5113166;28;20195;-42
2021/05/02 04:16:56;;;;;;;1999.90;999.90;;;11.30;99.90;;;;;;5113337;28;20664;-42
2021/05/02 04:19:23;;;;;;;1999.90;999.90;;;11.20;99.90;;;;;;5113548;28;20178;-42
2021/05/02 04:21:51;;;;;;;1999.90;999.90;;;11.20;99.90;;;;;;5113353;28;20163;-42
2021/05/02 04:24:18;;;;;;;1999.90;999.90;;;11.30;99.90;;;;;;5113211;28;20196;-42
2021/05/02 04:26:46;;;;;;;1999.90;999.90;;;11.30;99.90;;;;;;5116296;28;20167;-42
2021/05/02 04:29:13;;;;;;;1999.90;999.90;;;11.30;99.90;;;;;;5117291;28;20540;-42
2021/05/02 04:31:40;;;;;;;1999.90;999.90;;;11.30;99.90;;;;;;5117304;28;20503;-45
2021/05/02 04:34:07;;;;;;;1999.90;999.90;;;11.20;99.90;;;;;;5117307;28;20289;-42
2021/05/02 04:36:34;;;;;;;1999.90;999.90;;;11.20;99.90;;;;;;5117084;28;20263;-42
2021/05/02 04:39:02;;;;;;;1999.90;999.90;;;11.20;99.90;;;;;;5117015;28;20171;-42
2021/05/02 04:41:30;;;;;;;1999.90;999.90;;;11.10;99.90;;;;;;5117086;28;20163;-42
2021/05/02 04:43:56;;;;;;;1999.90;999.90;;;11.10;99.90;;;;;;5116896;28;20222;-42
2021/05/02 04:46:23;;;;;;;1999.90;999.90;;;11.00;99.90;;;;;;5116806;28;20179;-42
2021/05/02 04:48:50;;;;;;;1999.90;999.90;;;11.00;99.90;;;;;;5116802;28;20171;-42
2021/05/02 04:51:19;;;;;;;1999.90;999.90;;;10.90;99.90;;;;;;5116759;28;20167;-42
2021/05/02 04:53:46;;;;;;;1999.90;999.90;;;10.80;99.90;;;;;;5116481;28;20685;-42
2021/05/02 04:56:14;;;;;;;1999.90;999.90;;;10.80;99.90;;;;;;5116642;28;20163;-42
2021/05/02 04:58:42;;;;;;;1999.90;999.90;;;10.80;99.90;;;;;;5116541;28;20159;-42
2021/05/02 05:01:11;;;;;;;1999.90;999.90;;;10.70;99.90;;;;;;5116464;28;20195;-42
2021/05/02 05:03:38;;;;;;;1999.90;999.90;;;10.70;99.90;;;;;;5116438;28;20171;-42
2021/05/02 05:06:05;;;;;;;1999.90;999.90;;;10.70;99.90;;;;;;5116431;28;20167;-42
2021/05/02 05:08:32;;;;;;;1999.90;999.90;;;10.70;99.90;;;;;;5116470;28;20200;-42
2021/05/02 05:10:59;;;;;;;1999.90;999.90;;;10.70;99.90;;;;;;5116484;28;20167;-42
2021/05/02 05:13:26;;;;;;;1999.90;999.90;;;10.70;99.90;;;;;;5116338;28;20202;-42
2021/05/02 05:16:00;;;;;;;1999.90;999.90;;;10.70;99.90;;;;;;5116137;28;20167;-42
2021/05/02 05:18:27;;;;;;;1999.90;999.90;;;10.80;99.90;;;;;;5116348;28;20254;-42
2021/05/02 05:20:55;;;;;;;1999.90;999.90;;;10.80;99.90;;;;;;5116145;28;20250;-42
2021/05/02 05:23:23;;;;;;;1999.90;999.90;;;10.90;99.90;;;;;;5116150;28;20625;-42
2021/05/02 05:25:50;;;;;;;1999.90;999.90;;;10.80;99.90;;;;;;5116266;28;20159;-42
2021/05/02 05:28:17;;;;;;;1999.90;999.90;;;10.80;99.90;;;;;;5116161;28;20199;-42
2021/05/02 05:30:44;;;;;;;1999.90;999.90;;;10.80;99.90;;;;;;5116025;28;20240;-42
2021/05/02 05:33:11;;;;;;;1999.90;999.90;;;10.80;99.90;;;;;;5115893;28;20207;-42
2021/05/02 05:35:39;;;;;;;1999.90;999.90;;;10.80;99.90;;;;;;5116073;28;20168;-46
2021/05/02 05:38:06;;;;;;;1999.90;999.90;;;10.80;99.90;;;;;;5115089;28;20175;-42
2021/05/02 05:40:33;;;;;;;1999.90;999.90;;;11.00;99.90;;;;;;5115823;28;20250;-42
2021/05/02 05:43:03;;;;;;;1999.90;999.90;;;10.90;99.90;;;;;;5115738;28;20202;-42
2021/05/02 05:45:31;;;;;;;1999.90;999.90;;;11.00;99.90;;;;;;5115755;28;20191;-42
2021/05/02 05:47:59;;;;;;;1999.90;999.90;;;11.00;99.90;;;;;;5115693;28;20195;-47
2021/05/02 05:50:27;;;;;;;1999.90;999.90;;;11.00;99.90;;;;;;5115675;28;20684;-43
2021/05/02 05:52:57;;;;;;;1999.90;999.90;;;11.10;99.90;;;;;;5115325;28;20223;-42
2021/05/02 05:55:25;;;;;;;1999.90;999.90;;;11.20;99.90;;;;;;5115644;28;20205;-41
2021/05/02 05:57:52;;;;;;;1999.90;999.90;;;11.20;99.90;;;;;;5115838;28;20527;-42
2021/05/02 06:00:21;;;;;;;1999.90;999.90;;;11.20;99.90;;;;;;5115579;28;20171;-42
2021/05/02 06:02:49;;;;;;;1999.90;999.90;;;11.30;99.90;;;;;;5115344;28;20175;-43
2021/05/02 06:05:16;;;;;;;1999.90;999.90;;;11.30;99.90;;;;;;5115456;28;20657;-42
2021/05/02 06:07:44;;;;;;;1999.90;999.90;;;11.50;99.90;;;;;;5115291;28;20175;-42
2021/05/02 06:10:12;;;;;;;1999.90;999.90;;;11.70;99.90;;;;;;5115307;28;20170;-42
2021/05/02 06:12:40;;;;;;;1999.90;999.90;;;11.80;99.90;;;;;;5115166;28;20174;-42
2021/05/02 06:15:10;;;;;;;1999.90;999.90;;;12.00;99.90;;;;;;5115149;28;20633;-42
2021/05/02 06:17:37;;;;;;;1999.90;999.90;;;12.00;99.90;;;;;;5115098;28;20193;-41
2021/05/02 06:20:04;;;;;;;1999.90;999.90;;;12.10;99.90;;;;;;5114932;28;20183;-42
2021/05/02 06:22:31;;;;;;;1999.90;999.90;;;12.20;99.90;;;;;;5114965;28;20503;-41
2021/05/02 06:24:58;;;;;;;1999.90;999.90;;;12.30;99.90;;;;;;5114861;28;20527;-41
2021/05/02 06:27:25;;;;;;;1999.90;999.90;;;12.40;99.90;;;;;;5114803;28;20179;-41
2021/05/02 06:29:52;;;;;;;1999.90;999.90;;;12.50;99.40;;;;;;5114869;28;20259;-41
2021/05/02 06:32:19;;;;;;;1999.90;999.90;;;12.60;98.90;;;;;;5114742;28;20165;-42
2021/05/02 06:34:46;;;;;;;1999.90;999.90;;;12.70;99.10;;;;;;5114616;28;20684;-42
2021/05/02 06:37:13;;;;;;;1999.90;999.90;;;12.80;98.90;;;;;;5114678;28;20163;-41
2021/05/02 06:39:40;;;;;;;1999.90;999.90;;;12.90;98.40;;;;;;5114691;28;20179;-42
2021/05/02 06:42:07;;;;;;;1999.90;999.90;;;13.00;97.80;;;;;;5114734;28;20174;-43
2021/05/02 06:44:34;;;;;;;1999.90;999.90;;;13.20;97.20;;;;;;5114789;28;20228;-42
2021/05/02 06:47:01;;;;;;;1999.90;999.90;;;13.40;96.90;;;;;;5114576;28;20199;-42
2021/05/02 06:49:28;;;;;;;1999.90;999.90;;;13.60;96.70;;;;;;5114415;28;20221;-41
2021/05/02 06:51:55;;;;;;;1999.90;999.90;;;13.80;96.20;;;;;;5114259;28;20279;-41
2021/05/02 06:54:21;;;;;;;1999.90;999.90;;;13.80;96.50;;;;;;5114213;28;20207;-42
2021/05/02 06:56:48;;;;;;;1999.90;999.90;;;13.90;96.30;;;;;;5114419;28;20163;-51
2021/05/02 06:59:16;;;;;;;1999.90;999.90;;;14.10;95.90;;;;;;5114421;28;20186;-41
2021/05/02 07:01:43;;;;;;;1999.90;999.90;;;14.30;95.80;;;;;;5114177;28;20312;-41
2021/05/02 07:04:10;;;;;;;1999.90;999.90;;;14.30;95.50;;;;;;5114303;28;20175;-42
2021/05/02 07:06:37;;;;;;;1999.90;999.90;;;14.50;94.70;;;;;;5114370;28;20167;-41
2021/05/02 07:09:05;;;;;;;1999.90;999.90;;;14.80;94.50;;;;;;5114319;28;20604;-42
2021/05/02 07:11:32;;;;;;;1999.90;999.90;;;14.90;94.00;;;;;;5114131;28;20163;-42
2021/05/02 07:14:01;;;;;;;1999.90;999.90;;;14.90;94.50;;;;;;5114045;28;20210;-48
2021/05/02 07:16:29;;;;;;;1999.90;999.90;;;15.10;93.80;;;;;;5114230;28;20178;-43
2021/05/02 07:18:56;;;;;;;1999.90;999.90;;;15.20;93.40;;;;;;5113875;28;20303;-43
2021/05/02 07:21:23;;;;;;;1999.90;999.90;;;15.40;93.70;;;;;;5114002;28;20562;-41
2021/05/02 07:23:51;;;;;;;1999.90;999.90;;;15.60;93.30;;;;;;5113833;28;20167;-45
2021/05/02 07:26:22;;;;;;;1999.90;999.90;;;15.70;93.50;;;;;;5113898;28;20170;-42
2021/05/02 07:28:50;;;;;;;1999.90;999.90;;;15.90;92.70;;;;;;5113850;28;20151;-43
2021/05/02 07:31:17;;;;;;;1999.90;999.90;;;16.20;92.40;;;;;;5113786;28;20191;-49
2021/05/02 07:33:45;;;;;;;1999.90;999.90;;;16.30;92.10;;;;;;5113675;28;20199;-44
2021/05/02 07:36:14;;;;;;;1999.90;999.90;;;16.50;91.80;;;;;;5113456;28;20171;-43
2021/05/02 07:38:42;;;;;;;1999.90;999.90;;;16.80;91.30;;;;;;5113600;28;20252;-44
2021/05/02 07:41:10;;;;;;;1999.90;999.90;;;16.90;91.60;;;;;;5113597;28;20186;-43
2021/05/02 07:43:37;;;;;;;1999.90;999.90;;;17.20;89.50;;;;;;5113547;28;20567;-45
2021/05/02 07:46:04;;;;;;;1999.90;999.90;;;17.40;87.80;;;;;;5113394;28;20250;-56
2021/05/02 07:48:31;;;;;;;1999.90;999.90;;;17.60;86.40;;;;;;5113376;28;20602;-48
2021/05/02 07:50:58;;;;;;;1999.90;999.90;;;17.90;83.90;;;;;;5113350;28;20174;-47
2021/05/02 07:53:25;;;;;;;1999.90;999.90;;;18.20;80.60;;;;;;5113010;28;20229;-44
2021/05/02 07:55:52;;;;;;;1999.90;999.90;;;18.50;76.40;;;;;;5113177;28;20159;-45
2021/05/02 07:58:19;;;;;;;1999.90;999.90;;;18.80;73.70;;;;;;5113255;28;20160;-44
2021/05/02 08:00:46;;;;;;;1999.90;999.90;;;19.10;71.30;;;;;;5112791;28;20503;-45
2021/05/02 08:03:13;;;;;;;1999.90;999.90;;;19.30;70.60;;;;;;5113186;28;20517;-47
2021/05/02 08:05:40;;;;;;;1999.90;999.90;;;19.70;69.00;;;;;;5113063;28;20182;-43
2021/05/02 08:08:07;;;;;;;1999.90;999.90;;;20.20;64.90;;;;;;5113172;28;20178;-46
2021/05/02 08:10:34;;;;;;;1999.90;999.90;;;20.30;63.20;;;;;;5113145;28;20621;-55
2021/05/02 08:13:00;;;;;;;1999.90;999.90;;;20.60;60.90;;;;;;5113046;28;20175;-46
2021/05/02 08:15:27;;;;;;;1999.90;999.90;;;21.00;59.50;;;;;;5113054;28;20189;-50
2021/05/02 08:17:57;;;;;;;1999.90;999.90;;;21.20;57.80;;;;;;5113033;28;20629;-48
2021/05/02 08:20:24;;;;;;;1999.90;999.90;;;21.40;57.50;;;;;;5113166;28;20258;-43
2021/05/02 08:22:52;;;;;;;1999.90;999.90;;;21.70;56.20;;;;;;5113100;28;20175;-44
2021/05/02 08:25:20;;;;;;;1999.90;999.90;;;21.90;56.60;;;;;;5113151;28;20183;-53
2021/05/02 08:27:48;;;;;;;1999.90;999.90;;;22.20;56.20;;;;;;5112749;28;20579;-51
2021/05/02 08:30:15;;;;;;;1999.90;999.90;;;22.50;55.20;;;;;;5112846;28;20258;-56
2021/05/02 08:32:42;;;;;;;1999.90;999.90;;;22.60;55.40;;;;;;5113104;28;20205;-53
2021/05/02 08:35:10;;;;;;;1999.90;999.90;;;22.90;55.60;;;;;;5112843;28;20179;-47
2021/05/02 08:37:37;;;;;;;1999.90;999.90;;;23.00;53.70;;;;;;5112941;28;20600;-49
2021/05/02 08:40:06;;;;;;;1999.90;999.90;;;23.30;52.60;;;;;;5112724;28;20168;-44
2021/05/02 08:42:33;;;;;;;1999.90;999.90;;;23.50;51.90;;;;;;5094520;28;20175;-51
2021/05/02 08:45:00;;;;;;;1999.90;999.90;;;23.80;49.90;;;;;;5112976;28;20176;-59
2021/05/02 08:47:35;;;;;;;1999.90;999.90;;;24.00;48.20;;;;;;5112838;28;20175;-55
2021/05/02 08:50:05;;;;;;;1999.90;999.90;;;24.10;46.30;;;;;;5112906;28;20170;-45
2021/05/02 08:52:32;;;;;;;1999.90;999.90;;;24.30;45.20;;;;;;5112567;28;20219;-49
2021/05/02 08:54:59;;;;;;;1999.90;999.90;;;24.50;44.60;;;;;;5112862;28;20199;-58
2021/05/02 08:57:26;;;;;;;1999.90;999.90;;;24.70;44.00;;;;;;5112753;28;20633;-58
2021/05/02 08:59:53;;;;;;;1999.90;999.90;;;24.90;43.50;;;;;;5113021;28;20167;-54
2021/05/02 09:02:27;;;;;;;1999.90;999.90;;;25.00;41.30;;;;;;5112515;28;20171;-43
2021/05/02 09:05:03;;;;;;;1999.90;999.90;;;25.40;40.60;;;;;;5112509;28;20179;-55
2021/05/02 09:07:46;;;;;;;1999.90;999.90;;;25.70;39.40;;;;;;5112782;28;20183;-51
2021/05/02 09:10:17;;;;;;;1999.90;999.90;;;26.00;36.80;;;;;;5112595;28;20233;-49
2021/05/02 09:12:58;;;;;;;1999.90;999.90;;;26.20;34.80;;;;;;5113977;28;20144;-55
2021/05/02 09:15:25;;;;;;;1999.90;999.90;;;26.30;34.60;;;;;;5116246;28;20228;-58
2021/05/02 09:18:12;;;;;;;1999.90;999.90;;;26.40;34.20;;;;;;5098377;28;20163;-59
2021/05/02 09:20:48;;;;;;;1999.90;999.90;;;26.50;36.30;;;;;;5116555;28;20260;-59
2021/05/02 09:23:18;;;;;;;1999.90;999.90;;;26.70;36.90;;;;;;5116332;28;20639;-57
2021/05/02 09:25:50;;;;;;;1999.90;999.90;;;27.00;36.40;;;;;;5116398;28;20178;-52
2021/05/02 09:28:18;;;;;;;1999.90;999.90;;;27.30;35.50;;;;;;5116517;28;20185;-54
2021/05/02 09:30:46;;;;;;;1999.90;999.90;;;27.70;34.70;;;;;;5116206;28;20171;-56
2021/05/02 09:33:26;;;;;;;1999.90;999.90;;;27.90;33.00;;;;;;5115828;28;20199;-51
2021/05/02 09:35:53;;;;;;;1999.90;999.90;;;28.00;33.10;;;;;;5097683;28;20178;-47
2021/05/02 09:38:20;;;;;;;1999.90;999.90;;;28.30;31.60;;;;;;5115771;28;20676;-44
2021/05/02 09:40:55;;;;;;;1999.90;999.90;;;28.40;30.90;;;;;;5115843;28;20168;-56
2021/05/02 09:43:37;;;;;;;1999.90;999.90;;;28.60;31.20;;;;;;5115507;28;20170;-54
2021/05/02 09:48:59;;;;;;;1999.90;999.90;;;28.90;30.70;;;;;;5115770;28;20151;-56
2021/05/02 09:51:29;;;;;;;1999.90;999.90;;;28.90;29.60;;;;;;5115693;28;20167;-55
2021/05/02 09:54:19;;;;;;;1999.90;999.90;;;29.00;29.40;;;;;;5115515;28;20215;-55
2021/05/02 09:56:52;;;;;;;1999.90;999.90;;;29.30;28.90;;;;;;5115566;28;20656;-51
2021/05/02 09:59:23;;;;;;;1999.90;999.90;;;29.40;29.50;;;;;;5115756;28;20182;-57
2021/05/02 10:02:15;;;;;;;1999.90;999.90;;;29.50;28.70;;;;;;5115519;28;20167;-57
2021/05/02 10:04:48;;;;;;;1999.90;999.90;;;29.40;28.70;;;;;;5115490;28;20243;-54
2021/05/02 10:07:21;;;;;;;1999.90;999.90;;;28.90;29.40;;;;;;5115433;28;20246;-56
2021/05/02 10:09:49;;;;;;;1999.90;999.90;;;29.20;29.10;;;;;;5115553;28;20185;-56
2021/05/02 10:12:16;;;;;;;1999.90;999.90;;;29.40;28.40;;;;;;5115285;28;20641;-54
2021/05/02 10:14:44;;;;;;;1999.90;999.90;;;29.40;27.50;;;;;;5115041;28;20279;-53
2021/05/02 10:17:11;;;;;;;1999.90;999.90;;;29.50;27.70;;;;;;5115176;28;20709;-58
2021/05/02 10:19:39;;;;;;;1999.90;999.90;;;29.50;27.50;;;;;;5114880;28;20232;-56
2021/05/02 10:22:06;;;;;;;1999.90;999.90;;;29.50;27.80;;;;;;5114809;28;20155;-46
2021/05/02 10:24:34;;;;;;;1999.90;999.90;;;29.70;26.80;;;;;;5114484;28;20242;-46
2021/05/02 10:27:05;;;;;;;1999.90;999.90;;;29.80;26.70;;;;;;5114773;28;20622;-55
2021/05/02 10:29:33;;;;;;;1999.90;999.90;;;29.90;27.30;;;;;;5114786;28;20231;-57
2021/05/02 10:32:06;;;;;;;1999.90;999.90;;;29.90;26.30;;;;;;5114673;28;20633;-43
2021/05/02 10:34:35;;;;;;;1999.90;999.90;;;30.30;24.90;;;;;;5114767;28;20206;-57
2021/05/02 10:37:24;;;;;;;1999.90;999.90;;;30.30;24.60;;;;;;5114646;28;20641;-58
2021/05/02 10:40:03;;;;;;;1999.90;999.90;;;30.20;25.40;;;;;;5115146;28;20629;-42
2021/05/02 10:42:53;;;;;;;1999.90;999.90;;;30.20;25.30;;;;;;5114871;28;20249;-55
2021/05/02 10:45:28;;;;;;;1999.90;999.90;;;30.20;25.10;;;;;;5114479;28;20617;-53
2021/05/02 10:47:56;;;;;;;1999.90;999.90;;;30.50;23.90;;;;;;5114631;28;20223;-43
2021/05/02 10:50:50;;;;;;;1999.90;999.90;;;30.50;24.40;;;;;;5114403;28;20580;-60
2021/05/02 10:53:20;;;;;;;1999.90;999.90;;;30.50;24.50;;;;;;5110972;28;20230;-57
2021/05/02 10:56:01;;;;;;;1999.90;999.90;;;30.60;24.70;;;;;;5096401;28;20577;-42
2021/05/02 10:58:28;;;;;;;1999.90;999.90;;;30.70;24.20;;;;;;5114399;28;20152;-46
2021/05/02 11:01:05;;;;;;;1999.90;999.90;;;30.60;24.50;;;;;;5114473;28;20177;-46
2021/05/02 11:03:41;;;;;;;1999.90;999.90;;;30.60;24.20;;;;;;5114177;28;20220;-47
2021/05/02 11:06:10;;;;;;;1999.90;999.90;;;30.60;25.20;;;;;;5114104;28;20194;-43
2021/05/02 11:08:47;;;;;;;1999.90;999.90;;;30.60;24.70;;;;;;5113734;28;20175;-42
2021/05/02 11:11:32;;;;;;;1999.90;999.90;;;30.80;24.40;;;;;;5113910;28;20197;-55
2021/05/02 11:14:08;;;;;;;1999.90;999.90;;;31.00;24.10;;;;;;5113732;28;20240;-49
2021/05/02 11:16:40;;;;;;;1999.90;999.90;;;31.20;23.60;;;;;;5113670;28;20203;-49
2021/05/02 11:19:11;;;;;;;1999.90;999.90;;;31.20;22.60;;;;;;5113737;28;20254;-56
2021/05/02 11:21:51;;;;;;;1999.90;999.90;;;31.20;23.00;;;;;;5113674;28;20197;-49
2021/05/02 11:24:19;;;;;;;1999.90;999.90;;;30.90;23.10;;;;;;5113548;28;20293;-41
2021/05/02 11:32:33;;;;;;;1999.90;999.90;;;30.00;20.30;;;;;;5113736;28;20461;-41
2021/05/02 11:35:02;;;;;;;1999.90;999.90;;;29.90;20.30;;;;;;5112825;28;20203;-45
2021/05/02 11:37:56;;;;;;;1999.90;999.90;;;29.80;20.10;;;;;;5113431;28;20592;-55
2021/05/02 11:40:26;;;;;;;1999.90;999.90;;;29.90;20.60;;;;;;5113013;28;20163;-58
2021/05/02 11:42:54;;;;;;;1999.90;999.90;;;30.00;21.10;;;;;;5113212;28;20613;-57
2021/05/02 11:45:29;;;;;;;1999.90;999.90;;;30.10;21.60;;;;;;5113347;28;20227;-50
2021/05/02 11:47:56;;;;;;;1999.90;999.90;;;30.50;21.00;;;;;;5094992;28;20205;-42
2021/05/02 11:50:23;;;;;;;1999.90;999.90;;;30.50;21.00;;;;;;5113139;28;20195;-57
2021/05/02 11:52:54;;;;;;;1999.90;999.90;;;30.50;20.00;;;;;;5113045;28;20215;-52
2021/05/02 11:55:36;;;;;;;1999.90;999.90;;;30.30;20.10;;;;;;5112898;28;20523;-54
2021/05/02 11:58:08;;;;;;;1999.90;999.90;;;30.10;20.50;;;;;;5113194;28;20522;-43
2021/05/02 12:00:37;;;;;;;1999.90;999.90;;;30.20;21.30;;;;;;5113233;28;20172;-41
2021/05/02 12:03:08;;;;;;;1999.90;999.90;;;30.30;20.90;;;;;;5113023;28;20664;-46
2021/05/02 12:05:50;;;;;;;1999.90;999.90;;;30.40;21.00;;;;;;5113031;28;20195;-54
2021/05/02 12:08:18;;;;;;;1999.90;999.90;;;30.20;23.30;;;;;;5112845;28;20250;-55
2021/05/02 12:10:45;;;;;;;1999.90;999.90;;;30.40;22.70;;;;;;5112861;28;20614;-44
2021/05/02 12:13:32;;;;;;;1999.90;999.90;;;30.40;23.40;;;;;;5112964;28;20195;-43
2021/05/02 12:16:09;;;;;;;1999.90;999.90;;;30.50;22.80;;;;;;5112907;28;20171;-53
2021/05/02 12:18:51;;;;;;;1999.90;999.90;;;30.50;21.00;;;;;;5112920;28;20196;-47
2021/05/02 12:21:27;;;;;;;1999.90;999.90;;;30.60;22.10;;;;;;5112339;28;20663;-42